QFA648 YPPH-YSSY
Flight info
| Callsign | QFA648 |
|---|---|
| Flight time | 4h 4m |
| Altitude | 35000 |
| Route | HECTO Y135 MOSLA/N0445F370 Y135 TEDUS J15 AD H247 CULIN Y59 RIVET |
| Aircraft | A21N/M-SDE2E3FGHIRWXY/LB1 |
Departure
| Time | 2026-05-07 04:47 |
|---|---|
| Airport | Perth International Airport (YPPH) |
Arrival
| Time | 2026-05-07 08:51 |
|---|---|
| Airport | Sydney Kingsford Smith International Airport (YSSY) |
| Time | Latitude | Longitude | Altitude | Speed | Heading |
|---|---|---|---|---|---|
| 2026-05-07 03:49 | -31.93383 | 115.96192 | 73 ft | 0 kts | 290° |
| 2026-05-07 03:52 | -31.93383 | 115.96193 | 0 ft | 0 kts | 290° |
| 2026-05-07 04:02 | -31.93383 | 115.96194 | 71 ft | 0 kts | 290° |
| 2026-05-07 04:09 | -31.93383 | 115.96195 | 73 ft | 0 kts | 290° |
| 2026-05-07 04:16 | -31.93383 | 115.96196 | 73 ft | 0 kts | 290° |
| 2026-05-07 04:23 | -31.93383 | 115.96197 | 73 ft | 0 kts | 290° |
| 2026-05-07 04:37 | -31.93383 | 115.96198 | 65 ft | 0 kts | 290° |
| 2026-05-07 04:37 | -31.93390 | 115.96223 | 63 ft | 4 kts | 285° |
| 2026-05-07 04:37 | -31.93396 | 115.96254 | 69 ft | 4 kts | 277° |
| 2026-05-07 04:38 | -31.93397 | 115.96285 | 64 ft | 4 kts | 262° |
| 2026-05-07 04:38 | -31.93395 | 115.96298 | 67 ft | 1 kts | 259° |
| 2026-05-07 04:38 | -31.93395 | 115.96299 | 68 ft | 0 kts | 259° |
| 2026-05-07 04:42 | -31.93408 | 115.96291 | 67 ft | 4 kts | 165° |
| 2026-05-07 04:42 | -31.93418 | 115.96337 | 71 ft | 8 kts | 106° |
| 2026-05-07 04:43 | -31.93460 | 115.96404 | 73 ft | 13 kts | 161° |
| 2026-05-07 04:43 | -31.93566 | 115.96405 | 69 ft | 18 kts | 194° |
| 2026-05-07 04:43 | -31.93697 | 115.96365 | 66 ft | 21 kts | 193° |
| 2026-05-07 04:43 | -31.93849 | 115.96321 | 72 ft | 23 kts | 194° |
| 2026-05-07 04:44 | -31.94008 | 115.96275 | 69 ft | 24 kts | 194° |
| 2026-05-07 04:44 | -31.94173 | 115.96227 | 71 ft | 25 kts | 194° |
| 2026-05-07 04:44 | -31.94340 | 115.96168 | 70 ft | 26 kts | 220° |
| 2026-05-07 04:44 | -31.94268 | 115.96054 | 72 ft | 21 kts | 328° |
| 2026-05-07 04:45 | -31.94195 | 115.96002 | 72 ft | 9 kts | 329° |
| 2026-05-07 04:45 | -31.94137 | 115.95962 | 69 ft | 10 kts | 329° |
| 2026-05-07 04:45 | -31.94073 | 115.95968 | 73 ft | 10 kts | 47° |
| 2026-05-07 04:45 | -31.94059 | 115.95995 | 73 ft | 0 kts | 60° |
| 2026-05-07 04:46 | -31.94053 | 115.96007 | 71 ft | 15 kts | 60° |
| 2026-05-07 04:46 | -31.93861 | 115.96379 | 72 ft | 89 kts | 59° |
| 2026-05-07 04:46 | -31.93420 | 115.97234 | 140 ft | 142 kts | 59° |
| 2026-05-07 04:47 | -31.92915 | 115.98198 | 821 ft | 139 kts | 59° |
| 2026-05-07 04:47 | -31.92447 | 115.99193 | 1461 ft | 142 kts | 61° |
| 2026-05-07 04:47 | -31.91923 | 116.00237 | 1945 ft | 157 kts | 60° |
| 2026-05-07 04:47 | -31.91331 | 116.01407 | 2304 ft | 177 kts | 60° |
| 2026-05-07 04:48 | -31.90659 | 116.02725 | 2731 ft | 197 kts | 60° |
| 2026-05-07 04:48 | -31.89919 | 116.04181 | 3089 ft | 220 kts | 60° |
| 2026-05-07 04:48 | -31.89098 | 116.05790 | 3496 ft | 242 kts | 59° |
| 2026-05-07 04:48 | -31.88195 | 116.07547 | 4185 ft | 251 kts | 59° |
| 2026-05-07 04:49 | -31.87294 | 116.09299 | 4722 ft | 248 kts | 59° |
| 2026-05-07 04:49 | -31.86406 | 116.11014 | 4930 ft | 248 kts | 59° |
| 2026-05-07 04:49 | -31.85600 | 116.12804 | 5448 ft | 249 kts | 69° |
| 2026-05-07 04:49 | -31.85136 | 116.14803 | 6148 ft | 258 kts | 77° |
| 2026-05-07 04:50 | -31.84744 | 116.16895 | 6968 ft | 262 kts | 77° |
| 2026-05-07 04:50 | -31.84349 | 116.19004 | 7745 ft | 265 kts | 77° |
| 2026-05-07 04:50 | -31.84157 | 116.20015 | 8108 ft | 266 kts | 77° |
| 2026-05-07 04:51 | -31.83796 | 116.21913 | 8814 ft | 268 kts | 77° |
| 2026-05-07 04:51 | -31.83384 | 116.24060 | 9590 ft | 271 kts | 77° |
| 2026-05-07 04:52 | -31.82964 | 116.26235 | 10287 ft | 277 kts | 77° |
| 2026-05-07 04:52 | -31.82521 | 116.28523 | 10600 ft | 295 kts | 77° |
| 2026-05-07 04:52 | -31.82049 | 116.30955 | 10860 ft | 315 kts | 77° |
| 2026-05-07 04:52 | -31.81545 | 116.33540 | 11114 ft | 333 kts | 77° |
| 2026-05-07 04:53 | -31.81016 | 116.36265 | 11452 ft | 348 kts | 77° |
| 2026-05-07 04:53 | -31.80470 | 116.39064 | 12077 ft | 352 kts | 77° |
| 2026-05-07 04:53 | -31.79921 | 116.41852 | 12987 ft | 349 kts | 77° |
| 2026-05-07 04:53 | -31.79479 | 116.44638 | 13872 ft | 347 kts | 85° |
| 2026-05-07 04:54 | -31.79665 | 116.47474 | 14427 ft | 355 kts | 102° |
| 2026-05-07 04:54 | -31.80464 | 116.50266 | 14789 ft | 367 kts | 109° |
| 2026-05-07 04:54 | -31.81405 | 116.53076 | 15027 ft | 381 kts | 110° |
| 2026-05-07 04:54 | -31.82396 | 116.56071 | 15226 ft | 395 kts | 109° |
| 2026-05-07 04:55 | -31.83375 | 116.59088 | 15414 ft | 406 kts | 109° |
| 2026-05-07 04:55 | -31.84391 | 116.62249 | 15704 ft | 416 kts | 109° |
| 2026-05-07 04:55 | -31.85408 | 116.65439 | 16250 ft | 417 kts | 109° |
| 2026-05-07 04:55 | -31.86425 | 116.68643 | 16835 ft | 419 kts | 109° |
| 2026-05-07 04:56 | -31.87444 | 116.71859 | 17402 ft | 421 kts | 109° |
| 2026-05-07 04:56 | -31.88469 | 116.75098 | 17903 ft | 424 kts | 109° |
| 2026-05-07 04:56 | -31.89503 | 116.78374 | 18370 ft | 428 kts | 109° |
| 2026-05-07 04:56 | -31.90544 | 116.81670 | 18840 ft | 431 kts | 109° |
| 2026-05-07 04:57 | -31.91589 | 116.84984 | 19282 ft | 433 kts | 109° |
| 2026-05-07 04:57 | -31.92646 | 116.88336 | 19702 ft | 436 kts | 109° |
| 2026-05-07 04:57 | -31.93699 | 116.91683 | 20118 ft | 438 kts | 109° |
| 2026-05-07 04:57 | -31.94761 | 116.95062 | 20531 ft | 441 kts | 109° |
| 2026-05-07 04:58 | -31.95825 | 116.98448 | 20926 ft | 443 kts | 109° |
| 2026-05-07 04:58 | -31.96897 | 117.01863 | 21346 ft | 446 kts | 109° |
| 2026-05-07 04:58 | -31.97975 | 117.05301 | 21783 ft | 449 kts | 109° |
| 2026-05-07 04:58 | -31.99057 | 117.08752 | 22218 ft | 451 kts | 109° |
| 2026-05-07 04:59 | -32.00144 | 117.12227 | 22655 ft | 454 kts | 109° |
| 2026-05-07 04:59 | -32.01238 | 117.15729 | 23060 ft | 456 kts | 109° |
| 2026-05-07 04:59 | -32.02335 | 117.19246 | 23465 ft | 459 kts | 109° |
| 2026-05-07 04:59 | -32.03439 | 117.22784 | 23842 ft | 461 kts | 109° |
| 2026-05-07 05:00 | -32.04549 | 117.26344 | 24199 ft | 464 kts | 109° |
| 2026-05-07 05:00 | -32.05659 | 117.29920 | 24500 ft | 466 kts | 109° |
| 2026-05-07 05:00 | -32.06774 | 117.33513 | 24800 ft | 468 kts | 109° |
| 2026-05-07 05:00 | -32.07897 | 117.37130 | 25124 ft | 469 kts | 109° |
| 2026-05-07 05:01 | -32.09001 | 117.40698 | 25452 ft | 470 kts | 109° |
| 2026-05-07 05:01 | -32.10119 | 117.44306 | 25889 ft | 468 kts | 109° |
| 2026-05-07 05:01 | -32.11236 | 117.47916 | 26295 ft | 466 kts | 109° |
| 2026-05-07 05:01 | -32.12349 | 117.51513 | 26611 ft | 467 kts | 109° |
| 2026-05-07 05:02 | -32.13463 | 117.55117 | 26913 ft | 468 kts | 109° |
| 2026-05-07 05:02 | -32.14579 | 117.58733 | 27213 ft | 468 kts | 109° |
| 2026-05-07 05:02 | -32.15693 | 117.62355 | 27597 ft | 466 kts | 109° |
| 2026-05-07 05:02 | -32.16796 | 117.65940 | 28077 ft | 463 kts | 109° |
| 2026-05-07 05:03 | -32.17881 | 117.69466 | 28465 ft | 461 kts | 109° |
| 2026-05-07 05:03 | -32.18974 | 117.73032 | 28755 ft | 462 kts | 109° |
| 2026-05-07 05:03 | -32.20065 | 117.76599 | 29026 ft | 463 kts | 109° |
| 2026-05-07 05:03 | -32.21160 | 117.80185 | 29363 ft | 462 kts | 109° |
| 2026-05-07 05:04 | -32.22251 | 117.83753 | 29736 ft | 460 kts | 109° |
| 2026-05-07 05:04 | -32.23339 | 117.87311 | 30100 ft | 459 kts | 110° |
| 2026-05-07 05:04 | -32.24422 | 117.90853 | 30431 ft | 458 kts | 110° |
| 2026-05-07 05:04 | -32.25500 | 117.94393 | 30701 ft | 458 kts | 110° |
| 2026-05-07 05:05 | -32.26563 | 117.97890 | 30954 ft | 457 kts | 110° |
| 2026-05-07 05:05 | -32.27639 | 118.01433 | 31214 ft | 457 kts | 110° |
| 2026-05-07 05:05 | -32.28711 | 118.04966 | 31430 ft | 457 kts | 110° |
| 2026-05-07 05:05 | -32.29785 | 118.08505 | 31559 ft | 459 kts | 110° |
| 2026-05-07 05:06 | -32.30857 | 118.12045 | 31814 ft | 456 kts | 110° |
| 2026-05-07 05:06 | -32.31925 | 118.15570 | 32260 ft | 451 kts | 110° |
| 2026-05-07 05:06 | -32.32972 | 118.19040 | 32700 ft | 446 kts | 110° |
| 2026-05-07 05:06 | -32.34011 | 118.22483 | 33048 ft | 443 kts | 110° |
| 2026-05-07 05:07 | -32.35044 | 118.25911 | 33338 ft | 442 kts | 110° |
| 2026-05-07 05:07 | -32.36077 | 118.29330 | 33572 ft | 441 kts | 110° |
| 2026-05-07 05:07 | -32.37092 | 118.32704 | 33789 ft | 441 kts | 110° |
| 2026-05-07 05:07 | -32.38116 | 118.36115 | 34080 ft | 439 kts | 110° |
| 2026-05-07 05:08 | -32.39136 | 118.39516 | 34307 ft | 438 kts | 110° |
| 2026-05-07 05:08 | -32.40154 | 118.42918 | 34461 ft | 439 kts | 110° |
| 2026-05-07 05:08 | -32.41171 | 118.46321 | 34591 ft | 440 kts | 110° |
| 2026-05-07 05:08 | -32.42192 | 118.49733 | 34702 ft | 440 kts | 110° |
| 2026-05-07 05:09 | -32.44244 | 118.56593 | 34914 ft | 442 kts | 110° |
| 2026-05-07 05:09 | -32.45265 | 118.60013 | 35238 ft | 437 kts | 110° |
| 2026-05-07 05:09 | -32.46265 | 118.63379 | 35508 ft | 432 kts | 111° |
| 2026-05-07 05:10 | -32.48269 | 118.70123 | 35560 ft | 437 kts | 111° |
| 2026-05-07 05:10 | -32.50304 | 118.76982 | 35548 ft | 444 kts | 110° |
| 2026-05-07 05:11 | -32.52364 | 118.83940 | 35547 ft | 449 kts | 110° |
| 2026-05-07 05:11 | -32.54428 | 118.90924 | 35545 ft | 454 kts | 110° |
| 2026-05-07 05:12 | -32.56514 | 118.98003 | 35538 ft | 454 kts | 110° |
| 2026-05-07 05:12 | -32.58591 | 119.05078 | 35538 ft | 454 kts | 110° |
| 2026-05-07 05:13 | -32.60665 | 119.12142 | 35541 ft | 454 kts | 110° |
| 2026-05-07 05:13 | -32.62733 | 119.19225 | 35542 ft | 454 kts | 110° |
| 2026-05-07 05:14 | -32.64799 | 119.26302 | 35548 ft | 454 kts | 110° |
| 2026-05-07 05:14 | -32.66861 | 119.33387 | 35543 ft | 454 kts | 110° |
| 2026-05-07 05:15 | -32.68919 | 119.40470 | 35549 ft | 454 kts | 110° |
| 2026-05-07 05:15 | -32.70957 | 119.47509 | 35548 ft | 453 kts | 110° |
| 2026-05-07 05:16 | -32.73005 | 119.54593 | 35553 ft | 453 kts | 110° |
| 2026-05-07 05:16 | -32.74703 | 119.60474 | 35548 ft | 453 kts | 110° |
| 2026-05-07 05:17 | -32.76744 | 119.67567 | 35551 ft | 452 kts | 110° |
| 2026-05-07 05:17 | -32.78766 | 119.74612 | 35553 ft | 452 kts | 110° |
| 2026-05-07 05:18 | -32.80791 | 119.81689 | 35553 ft | 452 kts | 110° |
| 2026-05-07 05:18 | -32.82818 | 119.88786 | 35557 ft | 451 kts | 110° |
| 2026-05-07 05:19 | -32.84818 | 119.95810 | 35552 ft | 451 kts | 110° |
| 2026-05-07 05:19 | -32.86830 | 120.02879 | 35557 ft | 451 kts | 110° |
| 2026-05-07 05:20 | -32.88835 | 120.09952 | 35558 ft | 451 kts | 109° |
| 2026-05-07 05:20 | -32.90838 | 120.17041 | 35556 ft | 451 kts | 109° |
| 2026-05-07 05:21 | -32.93821 | 120.27610 | 35558 ft | 450 kts | 109° |
| 2026-05-07 05:22 | -32.95814 | 120.34691 | 35561 ft | 451 kts | 109° |
| 2026-05-07 05:22 | -32.97802 | 120.41782 | 35561 ft | 450 kts | 109° |
| 2026-05-07 05:23 | -32.99786 | 120.48835 | 35562 ft | 450 kts | 109° |
| 2026-05-07 05:23 | -33.01282 | 120.56083 | 35574 ft | 451 kts | 101° |
| 2026-05-07 05:24 | -33.02343 | 120.63413 | 35571 ft | 451 kts | 101° |
| 2026-05-07 05:24 | -33.03435 | 120.70774 | 35566 ft | 451 kts | 101° |
| 2026-05-07 05:25 | -33.04528 | 120.78146 | 35569 ft | 451 kts | 101° |
| 2026-05-07 05:25 | -33.05623 | 120.85476 | 35565 ft | 450 kts | 101° |
| 2026-05-07 05:26 | -33.06705 | 120.92847 | 35573 ft | 451 kts | 101° |
| 2026-05-07 05:26 | -33.07784 | 121.00212 | 35573 ft | 451 kts | 101° |
| 2026-05-07 05:27 | -33.08862 | 121.07545 | 35574 ft | 450 kts | 101° |
| 2026-05-07 05:27 | -33.09937 | 121.14929 | 35572 ft | 451 kts | 101° |
| 2026-05-07 05:28 | -33.11004 | 121.22252 | 35576 ft | 450 kts | 101° |
| 2026-05-07 05:28 | -33.12072 | 121.29612 | 35568 ft | 450 kts | 101° |
| 2026-05-07 05:29 | -33.13136 | 121.37006 | 35567 ft | 450 kts | 101° |
| 2026-05-07 05:29 | -33.14186 | 121.44332 | 35566 ft | 450 kts | 101° |
| 2026-05-07 05:30 | -33.15242 | 121.51717 | 35571 ft | 450 kts | 101° |
| 2026-05-07 05:30 | -33.16290 | 121.59079 | 35567 ft | 450 kts | 101° |
| 2026-05-07 05:31 | -33.17328 | 121.66405 | 35564 ft | 450 kts | 101° |
| 2026-05-07 05:31 | -33.18376 | 121.73765 | 35570 ft | 449 kts | 101° |
| 2026-05-07 05:32 | -33.19405 | 121.81121 | 35578 ft | 449 kts | 101° |
| 2026-05-07 05:32 | -33.20572 | 121.88446 | 35571 ft | 448 kts | 103° |
| 2026-05-07 05:33 | -33.21852 | 121.95735 | 35574 ft | 448 kts | 103° |
| 2026-05-07 05:33 | -33.23121 | 122.03026 | 35578 ft | 448 kts | 103° |
| 2026-05-07 05:34 | -33.24387 | 122.10278 | 35569 ft | 448 kts | 103° |
| 2026-05-07 05:34 | -33.25649 | 122.17576 | 35570 ft | 448 kts | 103° |
| 2026-05-07 05:35 | -33.26906 | 122.24867 | 35588 ft | 448 kts | 103° |
| 2026-05-07 05:35 | -33.28161 | 122.32174 | 35583 ft | 448 kts | 103° |
| 2026-05-07 05:36 | -33.29403 | 122.39421 | 35577 ft | 448 kts | 103° |
| 2026-05-07 05:36 | -33.30653 | 122.46719 | 35577 ft | 447 kts | 103° |
| 2026-05-07 05:37 | -33.31892 | 122.54030 | 35577 ft | 447 kts | 103° |
| 2026-05-07 05:37 | -33.33119 | 122.61279 | 35574 ft | 447 kts | 102° |
| 2026-05-07 05:38 | -33.34350 | 122.68579 | 35580 ft | 447 kts | 102° |
| 2026-05-07 05:38 | -33.35578 | 122.75881 | 35576 ft | 447 kts | 102° |
| 2026-05-07 05:39 | -33.36803 | 122.83191 | 35576 ft | 447 kts | 102° |
| 2026-05-07 05:39 | -33.38011 | 122.90443 | 35580 ft | 447 kts | 102° |
| 2026-05-07 05:40 | -33.39224 | 122.97741 | 35582 ft | 447 kts | 102° |
| 2026-05-07 05:40 | -33.40436 | 123.05042 | 35582 ft | 447 kts | 102° |
| 2026-05-07 05:41 | -33.41642 | 123.12356 | 35578 ft | 447 kts | 102° |
| 2026-05-07 05:41 | -33.42833 | 123.19603 | 35585 ft | 447 kts | 102° |
| 2026-05-07 05:42 | -33.44028 | 123.26914 | 35587 ft | 446 kts | 102° |
| 2026-05-07 05:42 | -33.45220 | 123.34225 | 35589 ft | 446 kts | 102° |
| 2026-05-07 05:43 | -33.46400 | 123.41492 | 35588 ft | 446 kts | 102° |
| 2026-05-07 05:43 | -33.47578 | 123.48780 | 35588 ft | 446 kts | 102° |
| 2026-05-07 05:44 | -33.48757 | 123.56073 | 35593 ft | 446 kts | 102° |
| 2026-05-07 05:44 | -33.49931 | 123.63382 | 35592 ft | 446 kts | 102° |
| 2026-05-07 05:45 | -33.51092 | 123.70640 | 35597 ft | 445 kts | 102° |
| 2026-05-07 05:45 | -33.52257 | 123.77954 | 35600 ft | 445 kts | 102° |
| 2026-05-07 05:46 | -33.53420 | 123.85245 | 35598 ft | 445 kts | 102° |
| 2026-05-07 05:46 | -33.54579 | 123.92557 | 35602 ft | 445 kts | 102° |
| 2026-05-07 05:47 | -33.55711 | 123.99807 | 35606 ft | 445 kts | 102° |
| 2026-05-07 05:47 | -33.56855 | 124.07102 | 35602 ft | 445 kts | 102° |
| 2026-05-07 05:48 | -33.57995 | 124.14402 | 35604 ft | 445 kts | 102° |
| 2026-05-07 05:48 | -33.59129 | 124.21690 | 35606 ft | 445 kts | 102° |
| 2026-05-07 05:49 | -33.60266 | 124.28995 | 35610 ft | 444 kts | 102° |
| 2026-05-07 05:49 | -33.61379 | 124.36245 | 35606 ft | 444 kts | 102° |
| 2026-05-07 05:50 | -33.62498 | 124.43534 | 35606 ft | 444 kts | 102° |
| 2026-05-07 05:50 | -33.63621 | 124.50824 | 35609 ft | 444 kts | 102° |
| 2026-05-07 05:51 | -33.64733 | 124.58110 | 35608 ft | 444 kts | 102° |
| 2026-05-07 05:51 | -33.65840 | 124.65401 | 35611 ft | 444 kts | 101° |
| 2026-05-07 05:52 | -33.66939 | 124.72693 | 35613 ft | 444 kts | 101° |
| 2026-05-07 05:52 | -33.68045 | 124.79943 | 35616 ft | 443 kts | 101° |
| 2026-05-07 05:53 | -33.69148 | 124.87228 | 35616 ft | 443 kts | 101° |
| 2026-05-07 05:53 | -33.70244 | 124.94519 | 35612 ft | 443 kts | 101° |
| 2026-05-07 05:54 | -33.71308 | 125.01820 | 35613 ft | 443 kts | 101° |
| 2026-05-07 05:54 | -33.72378 | 125.09107 | 35616 ft | 443 kts | 101° |
| 2026-05-07 05:55 | -33.73447 | 125.16350 | 35615 ft | 443 kts | 101° |
| 2026-05-07 05:55 | -33.74515 | 125.23650 | 35619 ft | 443 kts | 101° |
| 2026-05-07 05:56 | -33.75579 | 125.30942 | 35620 ft | 443 kts | 101° |
| 2026-05-07 05:56 | -33.76635 | 125.38249 | 35609 ft | 443 kts | 101° |
| 2026-05-07 05:57 | -33.77678 | 125.45494 | 35619 ft | 443 kts | 101° |
| 2026-05-07 05:57 | -33.78729 | 125.52792 | 35621 ft | 443 kts | 101° |
| 2026-05-07 05:58 | -33.79787 | 125.60086 | 35619 ft | 443 kts | 101° |
| 2026-05-07 05:58 | -33.80835 | 125.67382 | 35620 ft | 443 kts | 101° |
| 2026-05-07 05:59 | -33.81871 | 125.74682 | 35621 ft | 443 kts | 101° |
| 2026-05-07 05:59 | -33.82904 | 125.81991 | 35625 ft | 443 kts | 101° |
| 2026-05-07 06:00 | -33.83934 | 125.89305 | 35620 ft | 443 kts | 101° |
| 2026-05-07 06:00 | -33.84961 | 125.96574 | 35624 ft | 443 kts | 101° |
| 2026-05-07 06:01 | -33.85992 | 126.03889 | 35628 ft | 443 kts | 101° |
| 2026-05-07 06:01 | -33.87006 | 126.11213 | 35626 ft | 443 kts | 101° |
| 2026-05-07 06:02 | -33.88011 | 126.18492 | 35626 ft | 443 kts | 101° |
| 2026-05-07 06:02 | -33.89018 | 126.25810 | 35629 ft | 443 kts | 101° |
| 2026-05-07 06:03 | -33.89863 | 126.31944 | 35625 ft | 443 kts | 101° |
| 2026-05-07 06:03 | -33.90862 | 126.39234 | 35625 ft | 444 kts | 101° |
| 2026-05-07 06:04 | -33.91859 | 126.46575 | 35630 ft | 443 kts | 100° |
| 2026-05-07 06:04 | -33.92851 | 126.53904 | 35629 ft | 443 kts | 101° |
| 2026-05-07 06:05 | -33.93833 | 126.61188 | 35628 ft | 443 kts | 100° |
| 2026-05-07 06:05 | -33.94820 | 126.68540 | 35630 ft | 444 kts | 100° |
| 2026-05-07 06:06 | -33.95799 | 126.75885 | 35628 ft | 444 kts | 100° |
| 2026-05-07 06:06 | -33.96773 | 126.83231 | 35629 ft | 444 kts | 100° |
| 2026-05-07 06:07 | -33.97737 | 126.90534 | 35628 ft | 444 kts | 100° |
| 2026-05-07 06:07 | -33.98704 | 126.97897 | 35629 ft | 444 kts | 100° |
| 2026-05-07 06:08 | -33.99668 | 127.05256 | 35631 ft | 444 kts | 100° |
| 2026-05-07 06:08 | -34.00629 | 127.12614 | 35630 ft | 444 kts | 100° |
| 2026-05-07 06:09 | -34.01585 | 127.19974 | 35633 ft | 445 kts | 100° |
| 2026-05-07 06:09 | -34.02538 | 127.27346 | 35633 ft | 445 kts | 100° |
| 2026-05-07 06:10 | -34.03482 | 127.34676 | 35631 ft | 445 kts | 100° |
| 2026-05-07 06:10 | -34.04427 | 127.42056 | 35628 ft | 445 kts | 99° |
| 2026-05-07 06:11 | -34.05366 | 127.49440 | 35634 ft | 445 kts | 99° |
| 2026-05-07 06:11 | -34.06304 | 127.56771 | 35633 ft | 445 kts | 100° |
| 2026-05-07 06:12 | -34.07241 | 127.64151 | 35632 ft | 445 kts | 99° |
| 2026-05-07 06:12 | -34.08169 | 127.71546 | 35629 ft | 445 kts | 99° |
| 2026-05-07 06:13 | -34.09085 | 127.78930 | 35631 ft | 445 kts | 99° |
| 2026-05-07 06:13 | -34.09999 | 127.86327 | 35631 ft | 446 kts | 99° |
| 2026-05-07 06:14 | -34.10907 | 127.93687 | 35631 ft | 446 kts | 99° |
| 2026-05-07 06:14 | -34.11818 | 128.01095 | 35635 ft | 446 kts | 99° |
| 2026-05-07 06:15 | -34.12726 | 128.08517 | 35634 ft | 446 kts | 99° |
| 2026-05-07 06:15 | -34.13633 | 128.15946 | 35632 ft | 446 kts | 99° |
| 2026-05-07 06:16 | -34.14525 | 128.23318 | 35635 ft | 447 kts | 99° |
| 2026-05-07 06:16 | -34.15422 | 128.30755 | 35634 ft | 447 kts | 99° |
| 2026-05-07 06:17 | -34.16315 | 128.38197 | 35628 ft | 447 kts | 99° |
| 2026-05-07 06:17 | -34.17203 | 128.45634 | 35632 ft | 447 kts | 99° |
| 2026-05-07 06:18 | -34.18086 | 128.53073 | 35633 ft | 447 kts | 99° |
| 2026-05-07 06:18 | -34.18970 | 128.60482 | 35629 ft | 448 kts | 99° |
| 2026-05-07 06:19 | -34.19846 | 128.67929 | 35631 ft | 448 kts | 98° |
| 2026-05-07 06:19 | -34.20712 | 128.75387 | 35631 ft | 448 kts | 98° |
| 2026-05-07 06:20 | -34.21577 | 128.82835 | 35632 ft | 448 kts | 98° |
| 2026-05-07 06:20 | -34.22435 | 128.90289 | 35630 ft | 448 kts | 98° |
| 2026-05-07 06:21 | -34.23290 | 128.97754 | 35626 ft | 448 kts | 98° |
| 2026-05-07 06:21 | -34.24144 | 129.05174 | 35631 ft | 448 kts | 98° |
| 2026-05-07 06:22 | -34.24995 | 129.12627 | 35626 ft | 448 kts | 98° |
| 2026-05-07 06:22 | -34.26259 | 129.23842 | 35628 ft | 448 kts | 98° |
| 2026-05-07 06:23 | -34.27082 | 129.31267 | 35626 ft | 448 kts | 98° |
| 2026-05-07 06:23 | -34.27913 | 129.38731 | 35625 ft | 447 kts | 98° |
| 2026-05-07 06:24 | -34.28739 | 129.46196 | 35628 ft | 448 kts | 98° |
| 2026-05-07 06:24 | -34.29562 | 129.53668 | 35628 ft | 448 kts | 98° |
| 2026-05-07 06:25 | -34.30376 | 129.61094 | 35627 ft | 448 kts | 98° |
| 2026-05-07 06:25 | -34.31190 | 129.68567 | 35624 ft | 448 kts | 98° |
| 2026-05-07 06:26 | -34.32002 | 129.76038 | 35628 ft | 448 kts | 97° |
| 2026-05-07 06:26 | -34.32805 | 129.83510 | 35624 ft | 448 kts | 97° |
| 2026-05-07 06:27 | -34.33604 | 129.90982 | 35623 ft | 448 kts | 97° |
| 2026-05-07 06:27 | -34.34398 | 129.98456 | 35626 ft | 448 kts | 97° |
| 2026-05-07 06:28 | -34.35193 | 130.05963 | 35675 ft | 450 kts | 97° |
| 2026-05-07 06:28 | -34.35980 | 130.13437 | 35838 ft | 449 kts | 97° |
| 2026-05-07 06:29 | -34.36764 | 130.20943 | 36073 ft | 447 kts | 97° |
| 2026-05-07 06:29 | -34.37154 | 130.24680 | 36219 ft | 446 kts | 97° |
| 2026-05-07 06:29 | -34.37535 | 130.28367 | 36342 ft | 446 kts | 97° |
| 2026-05-07 06:30 | -34.37920 | 130.32084 | 36518 ft | 444 kts | 97° |
| 2026-05-07 06:30 | -34.38303 | 130.35799 | 36674 ft | 444 kts | 98° |
| 2026-05-07 06:30 | -34.38683 | 130.39503 | 36802 ft | 443 kts | 98° |
| 2026-05-07 06:30 | -34.39065 | 130.43207 | 36916 ft | 444 kts | 98° |
| 2026-05-07 06:31 | -34.39825 | 130.50645 | 37068 ft | 446 kts | 98° |
| 2026-05-07 06:31 | -34.40201 | 130.54361 | 37179 ft | 445 kts | 98° |
| 2026-05-07 06:31 | -34.40578 | 130.58087 | 37287 ft | 445 kts | 98° |
| 2026-05-07 06:32 | -34.41330 | 130.65541 | 37431 ft | 445 kts | 98° |
| 2026-05-07 06:32 | -34.42079 | 130.72943 | 37604 ft | 445 kts | 98° |
| 2026-05-07 06:33 | -34.42824 | 130.80409 | 37631 ft | 447 kts | 98° |
| 2026-05-07 06:33 | -34.43562 | 130.87883 | 37621 ft | 447 kts | 98° |
| 2026-05-07 06:34 | -34.44292 | 130.95367 | 37616 ft | 447 kts | 97° |
| 2026-05-07 06:34 | -34.45022 | 131.02861 | 37618 ft | 448 kts | 98° |
| 2026-05-07 06:35 | -34.45769 | 131.10365 | 37618 ft | 448 kts | 98° |
| 2026-05-07 06:35 | -34.46506 | 131.17858 | 37620 ft | 447 kts | 98° |
| 2026-05-07 06:36 | -34.47223 | 131.25353 | 37609 ft | 447 kts | 97° |
| 2026-05-07 06:36 | -34.47932 | 131.32801 | 37621 ft | 448 kts | 97° |
| 2026-05-07 06:37 | -34.48648 | 131.40347 | 37610 ft | 448 kts | 97° |
| 2026-05-07 06:37 | -34.49338 | 131.47820 | 37603 ft | 448 kts | 97° |
| 2026-05-07 06:38 | -34.50016 | 131.55335 | 37603 ft | 449 kts | 97° |
| 2026-05-07 06:38 | -34.50712 | 131.62816 | 37601 ft | 449 kts | 97° |
| 2026-05-07 06:39 | -34.51410 | 131.70382 | 37609 ft | 449 kts | 97° |
| 2026-05-07 06:39 | -34.52093 | 131.77858 | 37608 ft | 449 kts | 97° |
| 2026-05-07 06:40 | -34.52780 | 131.85391 | 37613 ft | 449 kts | 97° |
| 2026-05-07 06:40 | -34.53460 | 131.92933 | 37600 ft | 450 kts | 97° |
| 2026-05-07 06:41 | -34.54135 | 132.00479 | 37612 ft | 450 kts | 97° |
| 2026-05-07 06:41 | -34.54810 | 132.08024 | 37594 ft | 450 kts | 97° |
| 2026-05-07 06:42 | -34.55477 | 132.15585 | 37605 ft | 450 kts | 97° |
| 2026-05-07 06:42 | -34.56138 | 132.23112 | 37609 ft | 451 kts | 97° |
| 2026-05-07 06:43 | -34.56804 | 132.30692 | 37603 ft | 451 kts | 97° |
| 2026-05-07 06:43 | -34.57472 | 132.38263 | 37597 ft | 451 kts | 97° |
| 2026-05-07 06:44 | -34.58139 | 132.45853 | 37593 ft | 452 kts | 97° |
| 2026-05-07 06:44 | -34.58761 | 132.53411 | 37593 ft | 452 kts | 97° |
| 2026-05-07 06:45 | -34.59398 | 132.61033 | 37591 ft | 452 kts | 97° |
| 2026-05-07 06:45 | -34.60040 | 132.68659 | 37592 ft | 453 kts | 97° |
| 2026-05-07 06:46 | -34.60672 | 132.76236 | 37588 ft | 453 kts | 97° |
| 2026-05-07 06:46 | -34.61302 | 132.83871 | 37588 ft | 454 kts | 97° |
| 2026-05-07 06:47 | -34.61932 | 132.91502 | 37586 ft | 454 kts | 97° |
| 2026-05-07 06:47 | -34.62553 | 132.99148 | 37583 ft | 455 kts | 97° |
| 2026-05-07 06:48 | -34.63173 | 133.06798 | 37580 ft | 455 kts | 96° |
| 2026-05-07 06:48 | -34.63784 | 133.14415 | 37581 ft | 456 kts | 96° |
| 2026-05-07 06:49 | -34.64398 | 133.22078 | 37580 ft | 456 kts | 97° |
| 2026-05-07 06:49 | -34.64908 | 133.28461 | 37581 ft | 456 kts | 96° |
| 2026-05-07 06:50 | -34.65509 | 133.36145 | 37583 ft | 457 kts | 96° |
| 2026-05-07 06:50 | -34.66104 | 133.43839 | 37577 ft | 457 kts | 96° |
| 2026-05-07 06:51 | -34.66703 | 133.51536 | 37575 ft | 458 kts | 96° |
| 2026-05-07 06:51 | -34.67288 | 133.59193 | 37574 ft | 458 kts | 96° |
| 2026-05-07 06:52 | -34.67872 | 133.66905 | 37575 ft | 458 kts | 96° |
| 2026-05-07 06:52 | -34.68451 | 133.74640 | 37571 ft | 458 kts | 96° |
| 2026-05-07 06:53 | -34.69033 | 133.82364 | 37573 ft | 459 kts | 96° |
| 2026-05-07 06:53 | -34.69606 | 133.90099 | 37569 ft | 460 kts | 96° |
| 2026-05-07 06:54 | -34.70177 | 133.97845 | 37567 ft | 460 kts | 96° |
| 2026-05-07 06:54 | -34.70736 | 134.05603 | 37570 ft | 460 kts | 96° |
| 2026-05-07 06:55 | -34.71294 | 134.13361 | 37566 ft | 460 kts | 96° |
| 2026-05-07 06:55 | -34.71843 | 134.21076 | 37564 ft | 461 kts | 96° |
| 2026-05-07 06:56 | -34.72397 | 134.28858 | 37568 ft | 462 kts | 96° |
| 2026-05-07 06:56 | -34.72948 | 134.36646 | 37566 ft | 462 kts | 96° |
| 2026-05-07 06:57 | -34.73492 | 134.44432 | 37564 ft | 462 kts | 96° |
| 2026-05-07 06:57 | -34.74031 | 134.52231 | 37557 ft | 463 kts | 96° |
| 2026-05-07 06:58 | -34.74564 | 134.60031 | 37560 ft | 463 kts | 96° |
| 2026-05-07 06:58 | -34.75094 | 134.67837 | 37560 ft | 463 kts | 96° |
| 2026-05-07 06:59 | -34.75617 | 134.75641 | 37558 ft | 464 kts | 95° |
| 2026-05-07 06:59 | -34.76131 | 134.83422 | 37556 ft | 463 kts | 95° |
| 2026-05-07 07:00 | -34.76642 | 134.91228 | 37558 ft | 464 kts | 95° |
| 2026-05-07 07:00 | -34.77150 | 134.99044 | 37554 ft | 463 kts | 95° |
| 2026-05-07 07:01 | -34.77655 | 135.06861 | 37557 ft | 464 kts | 95° |
| 2026-05-07 07:01 | -34.78148 | 135.14695 | 37552 ft | 464 kts | 95° |
| 2026-05-07 07:02 | -34.78641 | 135.22524 | 37555 ft | 464 kts | 95° |
| 2026-05-07 07:02 | -34.79125 | 135.30314 | 37553 ft | 464 kts | 95° |
| 2026-05-07 07:03 | -34.79608 | 135.38156 | 37549 ft | 465 kts | 95° |
| 2026-05-07 07:03 | -34.80065 | 135.46012 | 37555 ft | 466 kts | 95° |
| 2026-05-07 07:04 | -34.80529 | 135.53876 | 37547 ft | 465 kts | 95° |
| 2026-05-07 07:04 | -34.80996 | 135.61743 | 37538 ft | 466 kts | 95° |
| 2026-05-07 07:05 | -34.81463 | 135.69607 | 37544 ft | 466 kts | 95° |
| 2026-05-07 07:05 | -34.81921 | 135.77480 | 37540 ft | 465 kts | 95° |
| 2026-05-07 07:06 | -34.82371 | 135.85343 | 37547 ft | 466 kts | 95° |
| 2026-05-07 07:06 | -34.82814 | 135.93169 | 37542 ft | 466 kts | 95° |
| 2026-05-07 07:07 | -34.83261 | 136.01033 | 37542 ft | 466 kts | 94° |
| 2026-05-07 07:07 | -34.83699 | 136.08925 | 37533 ft | 466 kts | 95° |
| 2026-05-07 07:08 | -34.84135 | 136.16808 | 37535 ft | 466 kts | 94° |
| 2026-05-07 07:08 | -34.84559 | 136.24696 | 37530 ft | 467 kts | 94° |
| 2026-05-07 07:09 | -34.84987 | 136.32584 | 37534 ft | 467 kts | 94° |
| 2026-05-07 07:09 | -34.85432 | 136.40476 | 37533 ft | 467 kts | 95° |
| 2026-05-07 07:10 | -34.85857 | 136.48337 | 37527 ft | 468 kts | 94° |
| 2026-05-07 07:10 | -34.86240 | 136.56269 | 37521 ft | 468 kts | 94° |
| 2026-05-07 07:11 | -34.86633 | 136.64181 | 37525 ft | 468 kts | 94° |
| 2026-05-07 07:11 | -34.87032 | 136.72116 | 37529 ft | 469 kts | 94° |
| 2026-05-07 07:12 | -34.87440 | 136.80008 | 37524 ft | 469 kts | 94° |
| 2026-05-07 07:12 | -34.87838 | 136.87948 | 37520 ft | 469 kts | 94° |
| 2026-05-07 07:13 | -34.88231 | 136.95875 | 37517 ft | 468 kts | 94° |
| 2026-05-07 07:13 | -34.88612 | 137.03798 | 37520 ft | 468 kts | 94° |
| 2026-05-07 07:14 | -34.88988 | 137.11721 | 37516 ft | 468 kts | 94° |
| 2026-05-07 07:14 | -34.89357 | 137.19577 | 37514 ft | 467 kts | 94° |
| 2026-05-07 07:15 | -34.89703 | 137.27482 | 37512 ft | 467 kts | 94° |
| 2026-05-07 07:15 | -34.90063 | 137.35385 | 37516 ft | 467 kts | 94° |
| 2026-05-07 07:16 | -34.90418 | 137.43298 | 37510 ft | 467 kts | 94° |
| 2026-05-07 07:16 | -34.90767 | 137.51203 | 37508 ft | 467 kts | 94° |
| 2026-05-07 07:17 | -34.91116 | 137.59115 | 37510 ft | 468 kts | 94° |
| 2026-05-07 07:17 | -34.91451 | 137.66987 | 37502 ft | 468 kts | 93° |
| 2026-05-07 07:18 | -34.91779 | 137.74906 | 37503 ft | 468 kts | 93° |
| 2026-05-07 07:18 | -34.92101 | 137.82842 | 37502 ft | 468 kts | 93° |
| 2026-05-07 07:19 | -34.92416 | 137.90774 | 37500 ft | 469 kts | 93° |
| 2026-05-07 07:19 | -34.92720 | 137.98667 | 37496 ft | 469 kts | 93° |
| 2026-05-07 07:20 | -34.93022 | 138.06609 | 37497 ft | 469 kts | 93° |
| 2026-05-07 07:20 | -34.93332 | 138.14564 | 37499 ft | 470 kts | 93° |
| 2026-05-07 07:21 | -34.93633 | 138.22522 | 37497 ft | 470 kts | 93° |
| 2026-05-07 07:21 | -34.93910 | 138.29965 | 37500 ft | 469 kts | 93° |
| 2026-05-07 07:22 | -34.94200 | 138.37927 | 37497 ft | 470 kts | 93° |
| 2026-05-07 07:22 | -34.94486 | 138.45883 | 37495 ft | 470 kts | 93° |
| 2026-05-07 07:23 | -34.94766 | 138.53799 | 37499 ft | 469 kts | 92° |
| 2026-05-07 07:23 | -34.94954 | 138.61756 | 37499 ft | 469 kts | 92° |
| 2026-05-07 07:24 | -34.95124 | 138.69718 | 37495 ft | 469 kts | 92° |
| 2026-05-07 07:24 | -34.95300 | 138.77638 | 37492 ft | 470 kts | 92° |
| 2026-05-07 07:25 | -34.95559 | 138.89605 | 37489 ft | 470 kts | 92° |
| 2026-05-07 07:26 | -34.95723 | 138.97583 | 37484 ft | 471 kts | 92° |
| 2026-05-07 07:26 | -34.95878 | 139.05515 | 37486 ft | 471 kts | 92° |
| 2026-05-07 07:27 | -34.96034 | 139.13505 | 37475 ft | 471 kts | 92° |
| 2026-05-07 07:27 | -34.96187 | 139.21487 | 37481 ft | 471 kts | 92° |
| 2026-05-07 07:28 | -34.96332 | 139.29487 | 37477 ft | 471 kts | 92° |
| 2026-05-07 07:28 | -34.96477 | 139.37431 | 37472 ft | 471 kts | 92° |
| 2026-05-07 07:29 | -34.96609 | 139.45410 | 37472 ft | 470 kts | 92° |
| 2026-05-07 07:29 | -34.96741 | 139.53416 | 37468 ft | 470 kts | 92° |
| 2026-05-07 07:30 | -34.96864 | 139.61342 | 37468 ft | 470 kts | 92° |
| 2026-05-07 07:30 | -34.96978 | 139.69329 | 37466 ft | 470 kts | 91° |
| 2026-05-07 07:31 | -34.97092 | 139.77297 | 37465 ft | 470 kts | 92° |
| 2026-05-07 07:31 | -34.97200 | 139.85282 | 37461 ft | 470 kts | 91° |
| 2026-05-07 07:32 | -34.97301 | 139.93253 | 37460 ft | 470 kts | 91° |
| 2026-05-07 07:32 | -34.97393 | 140.01235 | 37453 ft | 471 kts | 91° |
| 2026-05-07 07:33 | -34.97480 | 140.09224 | 37456 ft | 471 kts | 91° |
| 2026-05-07 07:33 | -34.97567 | 140.17209 | 37456 ft | 471 kts | 91° |
| 2026-05-07 07:34 | -34.97648 | 140.25135 | 37453 ft | 471 kts | 91° |
| 2026-05-07 07:34 | -34.97727 | 140.33124 | 37446 ft | 471 kts | 91° |
| 2026-05-07 07:35 | -34.97792 | 140.41118 | 37448 ft | 471 kts | 91° |
| 2026-05-07 07:35 | -34.97854 | 140.49112 | 37446 ft | 471 kts | 91° |
| 2026-05-07 07:36 | -34.97908 | 140.55756 | 37445 ft | 472 kts | 91° |
| 2026-05-07 07:36 | -34.97964 | 140.63762 | 37445 ft | 472 kts | 91° |
| 2026-05-07 07:37 | -34.98012 | 140.71768 | 37441 ft | 472 kts | 91° |
| 2026-05-07 07:37 | -34.98058 | 140.79773 | 37440 ft | 472 kts | 91° |
| 2026-05-07 07:38 | -34.98096 | 140.87788 | 37431 ft | 472 kts | 91° |
| 2026-05-07 07:38 | -34.98132 | 140.95800 | 37435 ft | 473 kts | 91° |
| 2026-05-07 07:39 | -34.98160 | 141.03772 | 37436 ft | 473 kts | 91° |
| 2026-05-07 07:39 | -34.98183 | 141.11805 | 37430 ft | 473 kts | 91° |
| 2026-05-07 07:40 | -34.98200 | 141.19844 | 37426 ft | 474 kts | 91° |
| 2026-05-07 07:40 | -34.98218 | 141.27884 | 37416 ft | 474 kts | 91° |
| 2026-05-07 07:41 | -34.98226 | 141.35930 | 37428 ft | 475 kts | 91° |
| 2026-05-07 07:41 | -34.98239 | 141.43975 | 37424 ft | 475 kts | 91° |
| 2026-05-07 07:42 | -34.98239 | 141.51988 | 37420 ft | 475 kts | 91° |
| 2026-05-07 07:42 | -34.98224 | 141.60039 | 37416 ft | 475 kts | 91° |
| 2026-05-07 07:43 | -34.98205 | 141.68102 | 37417 ft | 475 kts | 91° |
| 2026-05-07 07:43 | -34.98186 | 141.76167 | 37417 ft | 475 kts | 91° |
| 2026-05-07 07:44 | -34.98163 | 141.84232 | 37410 ft | 475 kts | 91° |
| 2026-05-07 07:44 | -34.98133 | 141.92301 | 37402 ft | 476 kts | 91° |
| 2026-05-07 07:45 | -34.98099 | 142.00363 | 37413 ft | 476 kts | 91° |
| 2026-05-07 07:45 | -34.98062 | 142.08435 | 37403 ft | 476 kts | 91° |
| 2026-05-07 07:46 | -34.98017 | 142.16509 | 37411 ft | 476 kts | 91° |
| 2026-05-07 07:46 | -34.97965 | 142.24529 | 37405 ft | 476 kts | 91° |
| 2026-05-07 07:47 | -34.97911 | 142.32600 | 37403 ft | 476 kts | 91° |
| 2026-05-07 07:47 | -34.97855 | 142.40675 | 37397 ft | 476 kts | 91° |
| 2026-05-07 07:48 | -34.97789 | 142.48745 | 37393 ft | 476 kts | 91° |
| 2026-05-07 07:48 | -34.97716 | 142.56834 | 37391 ft | 476 kts | 91° |
| 2026-05-07 07:49 | -34.97633 | 142.64918 | 37394 ft | 477 kts | 91° |
| 2026-05-07 07:49 | -34.97550 | 142.73001 | 37390 ft | 477 kts | 91° |
| 2026-05-07 07:50 | -34.97462 | 142.81036 | 37389 ft | 477 kts | 91° |
| 2026-05-07 07:50 | -34.97375 | 142.89148 | 37385 ft | 477 kts | 91° |
| 2026-05-07 07:51 | -34.97282 | 142.97208 | 37386 ft | 477 kts | 91° |
| 2026-05-07 07:51 | -34.97181 | 143.05306 | 37385 ft | 477 kts | 91° |
| 2026-05-07 07:52 | -34.97068 | 143.13410 | 37376 ft | 478 kts | 91° |
| 2026-05-07 07:52 | -34.96951 | 143.21474 | 37375 ft | 478 kts | 91° |
| 2026-05-07 07:53 | -34.96849 | 143.29587 | 37377 ft | 478 kts | 91° |
| 2026-05-07 07:53 | -34.96755 | 143.37690 | 37374 ft | 478 kts | 91° |
| 2026-05-07 07:54 | -34.96653 | 143.45804 | 37374 ft | 478 kts | 91° |
| 2026-05-07 07:54 | -34.96545 | 143.53923 | 37371 ft | 478 kts | 91° |
| 2026-05-07 07:55 | -34.96429 | 143.62034 | 37365 ft | 478 kts | 91° |
| 2026-05-07 07:55 | -34.96313 | 143.70092 | 37366 ft | 478 kts | 91° |
| 2026-05-07 07:56 | -34.96179 | 143.78207 | 37364 ft | 479 kts | 91° |
| 2026-05-07 07:56 | -34.96058 | 143.86329 | 37363 ft | 478 kts | 91° |
| 2026-05-07 07:57 | -34.95924 | 143.94451 | 37359 ft | 478 kts | 91° |
| 2026-05-07 07:57 | -34.95785 | 144.02560 | 37357 ft | 479 kts | 91° |
| 2026-05-07 07:58 | -34.95639 | 144.10630 | 37354 ft | 478 kts | 91° |
| 2026-05-07 07:58 | -34.95485 | 144.18740 | 37357 ft | 478 kts | 91° |
| 2026-05-07 07:59 | -34.95334 | 144.26853 | 37353 ft | 478 kts | 91° |
| 2026-05-07 07:59 | -34.95163 | 144.34980 | 37353 ft | 479 kts | 91° |
| 2026-05-07 08:00 | -34.94987 | 144.43055 | 37351 ft | 479 kts | 91° |
| 2026-05-07 08:00 | -34.94809 | 144.51178 | 37348 ft | 479 kts | 91° |
| 2026-05-07 08:01 | -34.94632 | 144.59312 | 37348 ft | 480 kts | 91° |
| 2026-05-07 08:01 | -34.94441 | 144.67441 | 37341 ft | 480 kts | 91° |
| 2026-05-07 08:02 | -34.94255 | 144.75599 | 37343 ft | 481 kts | 91° |
| 2026-05-07 08:02 | -34.94060 | 144.83754 | 37334 ft | 482 kts | 91° |
| 2026-05-07 08:03 | -34.93857 | 144.91879 | 37335 ft | 483 kts | 91° |
| 2026-05-07 08:03 | -34.93647 | 145.00066 | 37331 ft | 483 kts | 91° |
| 2026-05-07 08:04 | -34.93436 | 145.08258 | 37324 ft | 484 kts | 91° |
| 2026-05-07 08:04 | -34.93208 | 145.16468 | 37325 ft | 484 kts | 91° |
| 2026-05-07 08:05 | -34.92976 | 145.24628 | 37321 ft | 485 kts | 91° |
| 2026-05-07 08:05 | -34.92739 | 145.32842 | 37327 ft | 486 kts | 91° |
| 2026-05-07 08:06 | -34.92494 | 145.41072 | 37318 ft | 486 kts | 91° |
| 2026-05-07 08:06 | -34.92246 | 145.49312 | 37319 ft | 486 kts | 91° |
| 2026-05-07 08:07 | -34.91991 | 145.57555 | 37315 ft | 487 kts | 91° |
| 2026-05-07 08:07 | -34.91729 | 145.65793 | 37313 ft | 487 kts | 91° |
| 2026-05-07 08:08 | -34.91462 | 145.74058 | 37313 ft | 488 kts | 91° |
| 2026-05-07 08:08 | -34.91190 | 145.82260 | 37311 ft | 488 kts | 91° |
| 2026-05-07 08:09 | -34.90910 | 145.90535 | 37309 ft | 488 kts | 91° |
| 2026-05-07 08:09 | -34.90631 | 145.98805 | 37307 ft | 489 kts | 91° |
| 2026-05-07 08:10 | -34.90338 | 146.07082 | 37309 ft | 489 kts | 91° |
| 2026-05-07 08:10 | -34.90043 | 146.15365 | 37306 ft | 489 kts | 91° |
| 2026-05-07 08:11 | -34.89738 | 146.23657 | 37301 ft | 489 kts | 91° |
| 2026-05-07 08:11 | -34.89437 | 146.31939 | 37303 ft | 490 kts | 91° |
| 2026-05-07 08:12 | -34.89131 | 146.40228 | 37297 ft | 490 kts | 91° |
| 2026-05-07 08:12 | -34.88814 | 146.48497 | 37294 ft | 491 kts | 91° |
| 2026-05-07 08:13 | -34.88489 | 146.56799 | 37296 ft | 491 kts | 91° |
| 2026-05-07 08:13 | -34.88166 | 146.65125 | 37293 ft | 491 kts | 91° |
| 2026-05-07 08:14 | -34.87834 | 146.73385 | 37287 ft | 492 kts | 91° |
| 2026-05-07 08:14 | -34.87497 | 146.81697 | 37284 ft | 492 kts | 91° |
| 2026-05-07 08:15 | -34.87150 | 146.90017 | 37288 ft | 492 kts | 91° |
| 2026-05-07 08:15 | -34.86795 | 146.98363 | 37280 ft | 493 kts | 91° |
| 2026-05-07 08:16 | -34.86429 | 147.06716 | 37295 ft | 493 kts | 91° |
| 2026-05-07 08:16 | -34.86055 | 147.15075 | 37277 ft | 495 kts | 91° |
| 2026-05-07 08:17 | -34.85663 | 147.23441 | 37276 ft | 495 kts | 91° |
| 2026-05-07 08:17 | -34.85303 | 147.31762 | 37273 ft | 496 kts | 91° |
| 2026-05-07 08:18 | -34.84936 | 147.40171 | 37269 ft | 496 kts | 91° |
| 2026-05-07 08:18 | -34.84543 | 147.48574 | 37267 ft | 497 kts | 91° |
| 2026-05-07 08:19 | -34.84140 | 147.56922 | 37269 ft | 497 kts | 91° |
| 2026-05-07 08:19 | -34.83740 | 147.65344 | 37263 ft | 498 kts | 91° |
| 2026-05-07 08:20 | -34.83325 | 147.73766 | 37263 ft | 498 kts | 91° |
| 2026-05-07 08:20 | -34.82903 | 147.82202 | 37267 ft | 499 kts | 91° |
| 2026-05-07 08:21 | -34.82468 | 147.90649 | 37264 ft | 500 kts | 91° |
| 2026-05-07 08:21 | -34.82036 | 147.99052 | 37262 ft | 502 kts | 91° |
| 2026-05-07 08:22 | -34.81607 | 148.07556 | 37252 ft | 503 kts | 91° |
| 2026-05-07 08:22 | -34.81148 | 148.16060 | 37258 ft | 505 kts | 90° |
| 2026-05-07 08:23 | -34.80673 | 148.24610 | 37256 ft | 507 kts | 90° |
| 2026-05-07 08:23 | -34.80206 | 148.33139 | 37252 ft | 509 kts | 91° |
| 2026-05-07 08:24 | -34.79816 | 148.40345 | 37250 ft | 511 kts | 91° |
| 2026-05-07 08:24 | -34.79345 | 148.48988 | 37240 ft | 512 kts | 91° |
| 2026-05-07 08:25 | -34.78866 | 148.57591 | 37242 ft | 513 kts | 90° |
| 2026-05-07 08:25 | -34.78374 | 148.66263 | 37240 ft | 514 kts | 90° |
| 2026-05-07 08:26 | -34.77623 | 148.79292 | 37222 ft | 514 kts | 90° |
| 2026-05-07 08:26 | -34.77119 | 148.87962 | 37227 ft | 513 kts | 90° |
| 2026-05-07 08:27 | -34.76614 | 148.96555 | 37224 ft | 504 kts | 90° |
| 2026-05-07 08:27 | -34.76110 | 149.05020 | 37228 ft | 507 kts | 90° |
| 2026-05-07 08:28 | -34.75588 | 149.13630 | 37227 ft | 512 kts | 90° |
| 2026-05-07 08:28 | -34.75060 | 149.22265 | 37221 ft | 512 kts | 90° |
| 2026-05-07 08:29 | -34.74536 | 149.30918 | 37213 ft | 513 kts | 90° |
| 2026-05-07 08:29 | -34.73562 | 149.39514 | 37171 ft | 516 kts | 75° |
| 2026-05-07 08:30 | -34.72161 | 149.43525 | 36772 ft | 519 kts | 64° |
| 2026-05-07 08:30 | -34.70476 | 149.47364 | 35850 ft | 523 kts | 64° |
| 2026-05-07 08:30 | -34.68703 | 149.51306 | 34907 ft | 525 kts | 66° |
| 2026-05-07 08:30 | -34.66988 | 149.55158 | 34088 ft | 524 kts | 67° |
| 2026-05-07 08:31 | -34.65265 | 149.59063 | 33082 ft | 524 kts | 68° |
| 2026-05-07 08:31 | -34.63542 | 149.62994 | 32014 ft | 527 kts | 68° |
| 2026-05-07 08:31 | -34.61815 | 149.66937 | 30924 ft | 530 kts | 69° |
| 2026-05-07 08:31 | -34.60077 | 149.70900 | 29770 ft | 533 kts | 69° |
| 2026-05-07 08:32 | -34.58331 | 149.74875 | 28545 ft | 536 kts | 69° |
| 2026-05-07 08:32 | -34.56576 | 149.78881 | 27404 ft | 538 kts | 69° |
| 2026-05-07 08:32 | -34.54812 | 149.82893 | 26274 ft | 540 kts | 69° |
| 2026-05-07 08:32 | -34.53036 | 149.86917 | 25239 ft | 540 kts | 69° |
| 2026-05-07 08:33 | -34.51269 | 149.90919 | 24492 ft | 535 kts | 70° |
| 2026-05-07 08:33 | -34.49521 | 149.94875 | 23788 ft | 529 kts | 70° |
| 2026-05-07 08:33 | -34.47787 | 149.98797 | 22877 ft | 525 kts | 70° |
| 2026-05-07 08:33 | -34.46093 | 150.02623 | 22180 ft | 519 kts | 70° |
| 2026-05-07 08:34 | -34.44375 | 150.06503 | 21702 ft | 524 kts | 70° |
| 2026-05-07 08:34 | -34.42652 | 150.10378 | 21124 ft | 518 kts | 70° |
| 2026-05-07 08:34 | -34.40958 | 150.14187 | 20449 ft | 511 kts | 70° |
| 2026-05-07 08:34 | -34.39283 | 150.17949 | 19762 ft | 501 kts | 69° |
| 2026-05-07 08:35 | -34.37641 | 150.21633 | 19043 ft | 493 kts | 69° |
| 2026-05-07 08:35 | -34.36025 | 150.25269 | 18300 ft | 485 kts | 69° |
| 2026-05-07 08:35 | -34.34434 | 150.28846 | 17471 ft | 481 kts | 68° |
| 2026-05-07 08:35 | -34.32875 | 150.32349 | 16762 ft | 477 kts | 68° |
| 2026-05-07 08:36 | -34.31288 | 150.35909 | 16155 ft | 470 kts | 66° |
| 2026-05-07 08:36 | -34.29759 | 150.39312 | 15544 ft | 463 kts | 66° |
| 2026-05-07 08:36 | -34.28211 | 150.42757 | 14923 ft | 455 kts | 65° |
| 2026-05-07 08:36 | -34.26741 | 150.46042 | 14415 ft | 446 kts | 65° |
| 2026-05-07 08:37 | -34.25273 | 150.49326 | 13954 ft | 437 kts | 64° |
| 2026-05-07 08:37 | -34.23842 | 150.52528 | 13462 ft | 430 kts | 64° |
| 2026-05-07 08:37 | -34.22427 | 150.55688 | 12874 ft | 425 kts | 64° |
| 2026-05-07 08:37 | -34.21025 | 150.58812 | 12310 ft | 420 kts | 64° |
| 2026-05-07 08:38 | -34.19658 | 150.61872 | 11856 ft | 407 kts | 64° |
| 2026-05-07 08:38 | -34.18335 | 150.64829 | 11553 ft | 392 kts | 64° |
| 2026-05-07 08:38 | -34.17058 | 150.67663 | 11302 ft | 377 kts | 64° |
| 2026-05-07 08:38 | -34.15828 | 150.70393 | 11069 ft | 363 kts | 64° |
| 2026-05-07 08:39 | -34.14644 | 150.73014 | 10863 ft | 348 kts | 64° |
| 2026-05-07 08:39 | -34.13520 | 150.75506 | 10670 ft | 335 kts | 65° |
| 2026-05-07 08:39 | -34.12429 | 150.77923 | 10485 ft | 322 kts | 65° |
| 2026-05-07 08:39 | -34.11373 | 150.80261 | 10194 ft | 314 kts | 65° |
| 2026-05-07 08:40 | -34.10327 | 150.82582 | 9680 ft | 314 kts | 65° |
| 2026-05-07 08:40 | -34.09286 | 150.84893 | 9193 ft | 313 kts | 65° |
| 2026-05-07 08:40 | -34.08248 | 150.87206 | 8698 ft | 312 kts | 65° |
| 2026-05-07 08:40 | -34.07216 | 150.89505 | 8270 ft | 310 kts | 65° |
| 2026-05-07 08:41 | -34.06189 | 150.91782 | 7810 ft | 309 kts | 65° |
| 2026-05-07 08:41 | -34.05163 | 150.94052 | 7395 ft | 307 kts | 65° |
| 2026-05-07 08:41 | -34.04148 | 150.96300 | 7022 ft | 303 kts | 65° |
| 2026-05-07 08:41 | -34.03149 | 150.98503 | 6644 ft | 302 kts | 65° |
| 2026-05-07 08:42 | -34.02151 | 151.00717 | 6253 ft | 300 kts | 67° |
| 2026-05-07 08:42 | -34.01447 | 151.03041 | 5824 ft | 292 kts | 81° |
| 2026-05-07 08:42 | -34.00966 | 151.05415 | 5351 ft | 291 kts | 82° |
| 2026-05-07 08:42 | -34.00518 | 151.07794 | 4897 ft | 292 kts | 82° |
| 2026-05-07 08:43 | -34.00104 | 151.10042 | 4560 ft | 288 kts | 83° |
| 2026-05-07 08:43 | -33.99727 | 151.12090 | 4369 ft | 280 kts | 83° |
| 2026-05-07 08:43 | -33.99312 | 151.14343 | 4200 ft | 269 kts | 83° |
| 2026-05-07 08:43 | -33.98911 | 151.16512 | 3964 ft | 262 kts | 83° |
| 2026-05-07 08:44 | -33.98522 | 151.18628 | 3614 ft | 261 kts | 83° |
| 2026-05-07 08:44 | -33.98140 | 151.20743 | 3366 ft | 255 kts | 83° |
| 2026-05-07 08:44 | -33.97766 | 151.22836 | 3010 ft | 254 kts | 83° |
| 2026-05-07 08:44 | -33.97405 | 151.24919 | 2654 ft | 252 kts | 82° |
| 2026-05-07 08:45 | -33.97077 | 151.26932 | 2453 ft | 242 kts | 83° |
| 2026-05-07 08:45 | -33.96764 | 151.28873 | 2260 ft | 229 kts | 83° |
| 2026-05-07 08:45 | -33.96464 | 151.30696 | 2087 ft | 217 kts | 83° |
| 2026-05-07 08:45 | -33.96144 | 151.32458 | 1865 ft | 207 kts | 73° |
| 2026-05-07 08:46 | -33.95461 | 151.33838 | 1835 ft | 180 kts | 36° |
| 2026-05-07 08:46 | -33.94362 | 151.34358 | 1735 ft | 177 kts | 346° |
| 2026-05-07 08:46 | -33.93085 | 151.34043 | 1957 ft | 191 kts | 336° |
| 2026-05-07 08:46 | -33.91893 | 151.33609 | 2180 ft | 172 kts | 320° |
| 2026-05-07 08:47 | -33.91246 | 151.32599 | 2515 ft | 139 kts | 275° |
| 2026-05-07 08:47 | -33.91138 | 151.31548 | 2658 ft | 117 kts | 265° |
| 2026-05-07 08:47 | -33.91144 | 151.30620 | 2377 ft | 108 kts | 256° |
| 2026-05-07 08:47 | -33.91248 | 151.29724 | 2204 ft | 108 kts | 256° |
| 2026-05-07 08:48 | -33.91389 | 151.28838 | 2106 ft | 107 kts | 252° |
| 2026-05-07 08:48 | -33.91581 | 151.27976 | 1975 ft | 107 kts | 250° |
| 2026-05-07 08:48 | -33.91798 | 151.27111 | 1821 ft | 107 kts | 249° |
| 2026-05-07 08:48 | -33.92023 | 151.26244 | 1592 ft | 110 kts | 250° |
| 2026-05-07 08:49 | -33.92239 | 151.25351 | 1376 ft | 112 kts | 251° |
| 2026-05-07 08:49 | -33.92444 | 151.24456 | 1186 ft | 112 kts | 251° |
| 2026-05-07 08:49 | -33.92664 | 151.23564 | 993 ft | 111 kts | 252° |
| 2026-05-07 08:49 | -33.92882 | 151.22678 | 821 ft | 109 kts | 253° |
| 2026-05-07 08:50 | -33.93102 | 151.21790 | 603 ft | 110 kts | 255° |
| 2026-05-07 08:50 | -33.93313 | 151.20897 | 438 ft | 111 kts | 256° |
| 2026-05-07 08:50 | -33.93518 | 151.20016 | 299 ft | 111 kts | 257° |
| 2026-05-07 08:50 | -33.93726 | 151.19110 | 117 ft | 113 kts | 257° |
| 2026-05-07 08:51 | -33.93935 | 151.18209 | 47 ft | 104 kts | 257° |
| 2026-05-07 08:51 | -33.94109 | 151.17479 | 32 ft | 64 kts | 253° |
| 2026-05-07 08:51 | -33.94172 | 151.17221 | 34 ft | 21 kts | 255° |
| 2026-05-07 08:51 | -33.94212 | 151.17047 | 34 ft | 22 kts | 253° |
| 2026-05-07 08:52 | -33.94208 | 151.16865 | 33 ft | 24 kts | 322° |
| 2026-05-07 08:52 | -33.94109 | 151.16854 | 35 ft | 14 kts | 335° |
| 2026-05-07 08:52 | -33.94046 | 151.16919 | 35 ft | 13 kts | 77° |
| 2026-05-07 08:52 | -33.94021 | 151.17031 | 35 ft | 15 kts | 71° |
| 2026-05-07 08:53 | -33.93985 | 151.17158 | 35 ft | 17 kts | 76° |
| 2026-05-07 08:53 | -33.93955 | 151.17295 | 33 ft | 19 kts | 74° |
| 2026-05-07 08:53 | -33.93917 | 151.17450 | 32 ft | 20 kts | 73° |
| 2026-05-07 08:53 | -33.93888 | 151.17561 | 34 ft | 12 kts | 69° |
| 2026-05-07 08:54 | -33.93805 | 151.17587 | 34 ft | 15 kts | 346° |
| 2026-05-07 08:54 | -33.93698 | 151.17558 | 34 ft | 17 kts | 348° |
| 2026-05-07 08:54 | -33.93577 | 151.17526 | 34 ft | 19 kts | 348° |
| 2026-05-07 08:54 | -33.93441 | 151.17503 | 35 ft | 21 kts | 7° |
| 2026-05-07 08:55 | -33.93293 | 151.17480 | 35 ft | 23 kts | 348° |
| 2026-05-07 08:55 | -33.93135 | 151.17440 | 36 ft | 24 kts | 347° |
| 2026-05-07 08:55 | -33.93014 | 151.17412 | 36 ft | 12 kts | 14° |
| 2026-05-07 08:55 | -33.92995 | 151.17505 | 36 ft | 14 kts | 97° |
| 2026-05-07 08:56 | -33.93010 | 151.17631 | 35 ft | 16 kts | 99° |
| 2026-05-07 08:56 | -33.93056 | 151.17759 | 35 ft | 17 kts | 105° |
| 2026-05-07 08:56 | -33.93078 | 151.17899 | 35 ft | 18 kts | 98° |
| 2026-05-07 08:56 | -33.93103 | 151.17984 | 35 ft | 5 kts | 173° |
| 2026-05-07 08:57 | -33.93146 | 151.17971 | 35 ft | 6 kts | 190° |
| 2026-05-07 08:57 | -33.93159 | 151.17968 | 35 ft | 0 kts | 191° |